Time;durP1;ratioP1;P1;durP2;ratioP2;P2;SDS_P1;SDS_P2;PMS_P1;PMS_P2;Temp;Humidity;BMP_temperature;BMP_pressure;BME280_temperature;BME280_humidity;BME280_pressure;Samples;Min_cycle;Max_cycle;Signal;HPM_P1;HPM_P2
2021/12/17 00:06:55;;;;;;;68.40;47.80;;;;;;;6.35;100.00;103905.53;5114642;28;20028;-57
2021/12/17 00:09:21;;;;;;;74.35;50.20;;;;;;;6.36;100.00;103902.22;5114589;28;20023;-57
2021/12/17 00:11:46;;;;;;;69.38;48.78;;;;;;;6.38;100.00;103901.59;5113426;28;20026;-57
2021/12/17 00:14:17;;;;;;;78.85;50.20;;;;;;;6.40;100.00;103901.75;5114284;28;20019;-57
2021/12/17 00:16:42;;;;;;;80.43;50.28;;;;;;;6.41;100.00;103898.44;5114322;28;20076;-57
2021/12/17 00:19:25;;;;;;;94.63;55.45;;;;;;;6.43;100.00;103897.84;5113279;28;20048;-57
2021/12/17 00:48:58;;;;;;;129.60;61.85;;;;;;;6.64;100.00;103885.25;5112966;28;20032;-57
2021/12/17 00:54:28;;;;;;;97.78;51.88;;;;;;;6.55;100.00;103894.63;5113205;28;20383;-57
2021/12/17 00:56:55;;;;;;;93.55;52.28;;;;;;;6.58;100.00;103893.28;5113728;28;20062;-57
2021/12/17 00:59:22;;;;;;;107.30;55.60;;;;;;;6.57;100.00;103893.09;5113472;28;20467;-57
2021/12/17 01:01:48;;;;;;;120.03;55.53;;;;;;;6.53;100.00;103891.94;5112853;28;20095;-57
2021/12/17 01:04:14;;;;;;;123.05;57.78;;;;;;;6.51;100.00;103889.97;5113547;28;20383;-57
2021/12/17 01:06:39;;;;;;;127.95;56.75;;;;;;;6.50;100.00;103891.63;5113480;28;20471;-57
2021/12/17 01:09:08;;;;;;;131.40;59.45;;;;;;;6.52;100.00;103890.13;5112544;28;20024;-57
2021/12/17 01:11:34;;;;;;;141.65;58.78;;;;;;;6.51;100.00;103890.88;5113632;28;20031;-57
2021/12/17 01:13:59;;;;;;;139.60;56.78;;;;;;;6.49;100.00;103881.25;5113468;28;20073;-57
2021/12/17 01:16:25;;;;;;;151.65;60.42;;;;;;;6.49;100.00;103884.69;5112774;28;20024;-57
2021/12/17 01:24:10;;;;;;;168.48;64.53;;;;;;;6.58;100.00;103879.53;5112962;28;20056;-57
2021/12/17 01:42:59;;;;;;;212.93;70.93;;;;;;;6.71;100.00;103873.91;5112550;28;20032;-57
2021/12/17 01:45:30;;;;;;;230.68;74.90;;;;;;;6.70;100.00;103869.53;5113030;28;20040;-57
2021/12/17 01:47:57;;;;;;;218.23;70.57;;;;;;;6.70;100.00;103872.09;5113006;28;20093;-57
2021/12/17 01:56:05;;;;;;;216.45;70.20;;;;;;;6.76;100.00;103870.13;5113141;28;20030;-57
2021/12/17 02:01:15;;;;;;;220.75;67.53;;;;;;;6.70;100.00;103869.53;5114735;28;20050;-57
2021/12/17 02:03:40;;;;;;;213.65;68.15;;;;;;;6.68;100.00;103871.97;5116973;28;20382;-57
2021/12/17 02:06:06;;;;;;;213.05;63.75;;;;;;;6.65;100.00;103881.94;5116267;28;20034;-57
2021/12/17 02:08:32;;;;;;;215.02;66.28;;;;;;;6.64;100.00;103875.00;5116854;28;20023;-57
2021/12/17 02:11:42;;;;;;;214.25;65.88;;;;;;;6.63;100.00;103870.63;5116478;28;20072;-57
2021/12/17 02:19:41;;;;;;;200.55;63.65;;;;;;;6.66;100.00;103873.50;5115759;28;20042;-57
2021/12/17 02:22:42;;;;;;;;;;;;;;;6.77;100.00;103877.06;5117079;28;20028;-57
2021/12/17 02:33:04;;;;;;;215.73;66.57;;;;;;;6.55;100.00;103880.16;5115558;28;20041;-57
2021/12/17 02:35:39;;;;;;;221.77;63.95;;;;;;;6.58;100.00;103885.59;5116377;28;20098;-57
2021/12/17 02:38:06;;;;;;;215.80;64.03;;;;;;;6.58;100.00;103885.59;5116155;27;20424;-57
2021/12/17 02:45:43;;;;;;;223.40;61.88;;;;;;;6.61;100.00;103884.06;5115918;28;20043;-57
2021/12/17 02:48:12;;;;;;;231.80;64.25;;;;;;;6.56;100.00;103881.06;5115418;28;20023;-57
2021/12/17 02:50:58;;;;;;;244.95;64.78;;;;;;;6.58;100.00;103885.59;5116092;28;20051;-57
2021/12/17 02:53:26;;;;;;;239.52;64.28;;;;;;;6.56;100.00;103881.06;5115457;28;20099;-57
2021/12/17 02:55:54;;;;;;;239.43;66.60;;;;;;;6.55;100.00;103877.59;5115879;27;20467;-57
2021/12/17 02:58:22;;;;;;;248.07;64.10;;;;;;;6.54;100.00;103886.03;5115904;28;20046;-57
2021/12/17 03:00:47;;;;;;;258.52;67.55;;;;;;;6.55;100.00;103879.25;5115091;28;20035;-57
2021/12/17 03:03:14;;;;;;;238.15;64.25;;;;;;;6.54;100.00;103883.47;5115711;28;20464;-57
2021/12/17 03:05:41;;;;;;;254.73;63.30;;;;;;;6.52;100.00;103882.44;5115793;28;20024;-57
2021/12/17 03:08:11;;;;;;;263.45;65.18;;;;;;;6.51;100.00;103885.75;5115032;28;20027;-57
2021/12/17 03:10:36;;;;;;;262.98;65.75;;;;;;;6.51;100.00;103882.28;5115584;27;20543;-57
2021/12/17 03:13:04;;;;;;;276.55;67.60;;;;;;;6.53;100.00;103876.56;5115047;28;20021;-57
2021/12/17 03:23:39;;;;;;;259.33;66.20;;;;;;;6.57;100.00;103881.22;5115203;28;20038;-57
2021/12/17 03:26:06;;;;;;;257.80;65.57;;;;;;;6.58;100.00;103887.22;5115286;28;20089;-57
2021/12/17 03:28:32;;;;;;;257.63;65.30;;;;;;;6.59;100.00;103886.47;5114433;27;20039;-57
2021/12/17 03:30:59;;;;;;;265.80;67.35;;;;;;;6.61;100.00;103884.06;5115340;27;20024;-57
2021/12/17 03:33:24;;;;;;;272.67;66.78;;;;;;;6.61;100.00;103884.06;5115329;28;20035;-57
2021/12/17 03:35:50;;;;;;;271.60;68.55;;;;;;;6.62;100.00;103888.44;5114651;28;20028;-57
2021/12/17 03:38:16;;;;;;;269.27;66.55;;;;;;;6.63;100.00;103882.56;5114873;28;20374;-57
2021/12/17 03:40:43;;;;;;;274.83;69.72;;;;;;;6.63;100.00;103882.56;5115120;28;20396;-57
2021/12/17 03:43:13;;;;;;;288.45;71.05;;;;;;;6.64;100.00;103890.38;5114083;28;20066;-57
2021/12/17 03:45:40;;;;;;;288.00;73.18;;;;;;;6.63;100.00;103890.25;5115214;28;20106;-57
2021/12/17 03:48:05;;;;;;;276.98;71.85;;;;;;;6.64;100.00;103889.50;5114909;28;20059;-57
2021/12/17 03:50:34;;;;;;;282.55;67.40;;;;;;;6.66;100.00;103891.44;5114079;28;20077;-57
2021/12/17 03:52:59;;;;;;;291.77;71.25;;;;;;;6.64;100.00;103885.25;5114780;28;20023;-57
2021/12/17 03:55:25;;;;;;;290.98;68.80;;;;;;;6.65;100.00;103881.03;5114567;28;20031;-57
2021/12/17 03:57:50;;;;;;;283.92;71.28;;;;;;;6.61;100.00;103884.97;5113854;28;20026;-57
2021/12/17 04:00:15;;;;;;;290.10;70.72;;;;;;;6.64;100.00;103881.81;5114742;28;20038;-57
2021/12/17 04:02:41;;;;;;;299.92;74.78;;;;;;;6.63;100.00;103882.56;5114568;28;20026;-57
2021/12/17 04:05:06;;;;;;;301.17;75.05;;;;;;;6.64;100.00;103884.38;5113886;28;20062;-57
2021/12/17 04:07:31;;;;;;;304.17;74.10;;;;;;;6.64;100.00;103877.56;5114468;28;20023;-57
2021/12/17 04:09:57;;;;;;;287.73;70.25;;;;;;;6.65;100.00;103873.31;5114202;28;20495;-57
2021/12/17 04:12:34;;;;;;;298.27;71.00;;;;;;;6.65;100.00;103873.31;5113889;28;20383;-57
2021/12/17 04:15:00;;;;;;;321.58;75.20;;;;;;;6.65;100.00;103870.75;5114617;28;20023;-57
2021/12/17 04:17:26;;;;;;;303.77;67.07;;;;;;;6.63;100.00;103877.44;5114245;28;20015;-57
2021/12/17 04:19:51;;;;;;;288.08;69.05;;;;;;;6.65;100.00;103886.16;5113495;28;20093;-57
2021/12/17 04:22:17;;;;;;;289.98;68.47;;;;;;;6.65;100.00;103887.06;5114262;28;20036;-57
2021/12/17 04:24:42;;;;;;;294.75;67.60;;;;;;;6.61;100.00;103879.84;5112690;28;20080;-57
2021/12/17 04:27:08;;;;;;;287.92;65.78;;;;;;;6.60;100.00;103872.91;5113967;28;20040;-57
2021/12/17 04:29:40;;;;;;;263.73;60.08;;;;;;;6.59;100.00;103879.69;5114061;28;20020;-57
2021/12/17 04:32:05;;;;;;;269.17;64.55;;;;;;;6.59;100.00;103877.13;5113380;27;20019;-57
2021/12/17 04:34:31;;;;;;;255.90;59.20;;;;;;;6.61;100.00;103881.50;5113971;28;20030;-57
2021/12/17 04:36:57;;;;;;;249.90;59.42;;;;;;;6.61;100.00;103884.97;5113907;28;20019;-57
2021/12/17 04:39:23;;;;;;;259.38;60.63;;;;;;;6.61;100.00;103884.06;5112946;28;20043;-57
2021/12/17 04:42:00;;;;;;;270.02;60.97;;;;;;;6.58;100.00;103884.66;5113830;28;20477;-57
2021/12/17 04:44:32;;;;;;;265.85;60.30;;;;;;;6.58;100.00;103884.66;5113902;28;20020;-57
2021/12/17 04:57:47;;;;;;;256.02;58.22;;;;;;;6.52;100.00;103869.63;5113689;28;20105;-57
2021/12/17 05:00:16;;;;;;;;;;;;;;;6.61;100.00;103874.72;5113169;28;20023;-57
2021/12/17 05:02:46;;;;;;;281.50;63.05;;;;;;;6.54;100.00;103874.88;5113755;28;19958;-57
2021/12/17 05:05:12;;;;;;;303.15;61.13;;;;;;;6.52;100.00;103874.75;5113590;28;20030;-57
2021/12/17 05:07:43;;;;;;;276.40;61.38;;;;;;;6.52;100.00;103877.31;5112874;28;20088;-57
2021/12/17 05:18:47;;;;;;;282.67;59.80;;;;;;;6.50;100.00;103877.91;5113125;28;20386;-57
2021/12/17 05:21:04;;;;;;;273.45;58.50;;;;;;;6.49;100.00;103887.25;5110071;28;20031;-57
2021/12/17 05:23:37;;;;;;;269.13;57.30;;;;;;;6.48;100.00;103882.00;5113485;28;20064;-57
2021/12/17 05:26:05;;;;;;;267.70;56.92;;;;;;;6.48;100.00;103882.91;5113292;28;20023;-57
2021/12/17 05:28:30;;;;;;;272.08;58.30;;;;;;;6.47;100.00;103891.34;5112614;28;20047;-57
2021/12/17 05:30:56;;;;;;;256.98;59.67;;;;;;;6.47;100.00;103886.22;5113238;28;20028;-57
2021/12/17 05:33:23;;;;;;;268.88;59.72;;;;;;;6.45;100.00;103892.84;5113086;28;20030;-57
2021/12/17 05:35:49;;;;;;;248.80;60.88;;;;;;;6.46;100.00;103894.66;5115217;28;20023;-58
2021/12/17 05:38:17;;;;;;;260.63;58.53;;;;;;;6.44;100.00;103888.47;5117442;28;20027;-57
2021/12/17 05:40:43;;;;;;;266.50;58.50;;;;;;;6.44;100.00;103896.16;5117421;28;20463;-57
2021/12/17 05:43:09;;;;;;;231.10;56.28;;;;;;;6.44;100.00;103888.47;5116605;28;20043;-57
2021/12/17 05:45:48;;;;;;;241.65;56.78;;;;;;;6.44;100.00;103883.34;5117382;28;20105;-57
2021/12/17 05:48:21;;;;;;;247.15;54.92;;;;;;;6.44;100.00;103888.47;5116972;27;20020;-57
2021/12/17 05:50:48;;;;;;;246.73;56.95;;;;;;;6.43;100.00;103879.00;5116829;28;20108;-57
2021/12/17 05:53:15;;;;;;;235.75;54.85;;;;;;;6.43;100.00;103873.88;5117375;28;20489;-58
2021/12/17 05:55:40;;;;;;;236.38;53.03;;;;;;;6.43;100.00;103881.56;5117040;27;20031;-57
2021/12/17 05:58:07;;;;;;;235.55;53.13;;;;;;;6.42;100.00;103882.31;5116500;28;20034;-57
2021/12/17 06:00:34;;;;;;;246.93;54.23;;;;;;;6.42;100.00;103888.34;5116847;28;20078;-57
2021/12/17 06:03:00;;;;;;;244.75;54.35;;;;;;;6.41;100.00;103901.00;5116841;28;20277;-57
2021/12/17 06:05:27;;;;;;;190.32;47.45;;;;;;;6.40;100.00;103900.13;5116472;28;20107;-57
2021/12/17 06:07:52;;;;;;;196.55;48.20;;;;;;;6.39;100.00;103903.41;5116805;28;20072;-57
2021/12/17 06:10:18;;;;;;;190.13;45.20;;;;;;;6.40;100.00;103899.19;5116081;28;20028;-57
2021/12/17 06:12:43;;;;;;;197.45;45.17;;;;;;;6.39;100.00;103897.38;5116842;28;20103;-57
2021/12/17 06:15:12;;;;;;;207.45;49.17;;;;;;;6.38;100.00;103900.72;5116679;28;20391;-57
2021/12/17 06:17:38;;;;;;;227.15;52.25;;;;;;;6.38;100.00;103904.16;5115985;28;20462;-57
2021/12/17 06:20:05;;;;;;;218.25;51.00;;;;;;;6.37;100.00;103904.91;5116177;28;20043;-57
2021/12/17 06:22:31;;;;;;;;;;;;;;;6.48;100.00;103917.84;5116917;28;20417;-57
2021/12/17 06:24:56;;;;;;;212.32;50.28;;;;;;;6.40;100.00;103912.00;5115686;28;19937;-57
2021/12/17 06:27:23;;;;;;;213.75;51.67;;;;;;;6.39;100.00;103912.75;5116416;28;20019;-57
2021/12/17 06:29:49;;;;;;;227.43;52.50;;;;;;;6.38;100.00;103910.97;5116258;28;20023;-57
2021/12/17 06:32:15;;;;;;;211.45;49.88;;;;;;;6.38;100.00;103921.22;5115791;28;20020;-57
2021/12/17 06:34:40;;;;;;;208.07;50.28;;;;;;;6.37;100.00;103919.41;5116531;28;20031;-57
2021/12/17 06:37:07;;;;;;;197.80;47.65;;;;;;;6.36;100.00;103918.47;5116091;28;20035;-57
2021/12/17 06:39:33;;;;;;;196.73;48.03;;;;;;;6.38;100.00;103918.66;5115815;28;20056;-58
2021/12/17 06:41:59;;;;;;;189.63;47.30;;;;;;;6.40;100.00;103914.56;5116101;28;20027;-57
2021/12/17 06:44:26;;;;;;;191.82;44.53;;;;;;;6.41;100.00;103921.50;5115901;28;20069;-57
2021/12/17 06:46:59;;;;;;;190.05;47.17;;;;;;;6.42;100.00;103918.19;5114809;28;20531;-58
2021/12/17 06:49:41;;;;;;;198.93;43.90;;;;;;;6.43;100.00;103914.88;5116242;28;20101;-57
2021/12/17 07:10:49;;;;;;;191.85;40.88;;;;;;;6.43;100.00;103927.69;5115717;28;20039;-57
2021/12/17 07:21:36;;;;;;;201.70;41.90;;;;;;;6.43;100.00;103930.25;5115099;28;20043;-57
2021/12/17 07:34:41;;;;;;;153.88;43.75;;;;;;;6.50;100.00;103912.13;5114897;28;20031;-58
2021/12/17 07:39:33;;;;;;;154.27;43.05;;;;;;;6.52;100.00;103900.38;5115108;28;20036;-57
2021/12/17 07:41:58;;;;;;;162.32;46.45;;;;;;;6.50;100.00;103896.75;5114221;28;20024;-57
2021/12/17 07:44:23;;;;;;;144.05;48.38;;;;;;;6.51;100.00;103902.78;5114945;28;20036;-57
2021/12/17 07:46:49;;;;;;;147.43;48.10;;;;;;;6.48;100.00;103911.09;5114671;28;20042;-57
2021/12/17 07:49:14;;;;;;;149.18;48.75;;;;;;;6.45;100.00;103905.66;5114210;28;20032;-57
2021/12/17 07:51:39;;;;;;;141.52;48.72;;;;;;;6.45;100.00;103905.66;5114732;28;20027;-57
2021/12/17 07:54:04;;;;;;;134.30;48.67;;;;;;;6.43;100.00;103905.50;5114559;28;20475;-58
2021/12/17 07:56:37;;;;;;;132.57;48.85;;;;;;;6.43;100.00;103897.84;5114202;28;20019;-57
2021/12/17 07:59:02;;;;;;;135.63;49.25;;;;;;;6.43;100.00;103902.06;5113436;28;20081;-57
2021/12/17 08:01:28;;;;;;;145.02;50.97;;;;;;;6.42;100.00;103907.94;5114308;28;20482;-58
2021/12/17 08:03:53;;;;;;;140.30;51.97;;;;;;;6.40;100.00;103906.88;5114201;28;20528;-57
2021/12/17 08:06:18;;;;;;;152.13;51.22;;;;;;;6.38;100.00;103906.72;5114498;28;20026;-57
2021/12/17 08:08:44;;;;;;;161.18;53.75;;;;;;;6.37;100.00;103909.16;5114327;28;20028;-58
2021/12/17 08:11:09;;;;;;;147.57;52.88;;;;;;;6.35;100.00;103920.91;5113982;28;20015;-57
2021/12/17 08:13:36;;;;;;;151.50;54.30;;;;;;;6.34;100.00;103924.22;5114477;28;20111;-57
2021/12/17 08:24:11;;;;;;;168.07;57.47;;;;;;;6.25;100.00;103930.25;5113598;28;20035;-57
2021/12/17 08:29:25;;;;;;;198.18;60.25;;;;;;;6.25;100.00;103932.81;5114149;28;20398;-57
2021/12/17 08:31:50;;;;;;;187.80;66.45;;;;;;;6.26;100.00;103942.31;5113340;28;20051;-57
2021/12/17 08:34:16;;;;;;;192.27;65.40;;;;;;;6.26;100.00;103937.19;5113925;28;20054;-57
2021/12/17 08:36:41;;;;;;;193.15;64.75;;;;;;;6.28;100.00;103941.56;5113603;28;20027;-57
2021/12/17 08:39:06;;;;;;;184.88;62.95;;;;;;;6.28;100.00;103945.03;5113021;28;20027;-57
2021/12/17 08:41:32;;;;;;;191.63;60.90;;;;;;;6.28;100.00;103942.47;5113734;28;20048;-57
2021/12/17 08:43:57;;;;;;;189.02;60.97;;;;;;;6.30;100.00;103937.47;5113486;28;20020;-57
2021/12/17 08:46:22;;;;;;;189.95;63.30;;;;;;;6.31;100.00;103946.97;5113264;28;20051;-57
2021/12/17 08:48:48;;;;;;;190.07;59.42;;;;;;;6.32;100.00;103936.88;5113585;28;20031;-57
2021/12/17 08:51:13;;;;;;;188.95;58.00;;;;;;;6.33;100.00;103931.00;5113378;27;20023;-56
2021/12/17 08:53:39;;;;;;;172.55;58.40;;;;;;;6.33;100.00;103938.69;5113385;28;20539;-57
2021/12/17 08:56:05;;;;;;;180.68;58.22;;;;;;;6.34;100.00;103937.00;5113680;28;20024;-57
2021/12/17 08:58:32;;;;;;;174.90;57.65;;;;;;;6.36;100.00;103938.09;5113139;28;20032;-57
2021/12/17 09:00:57;;;;;;;178.25;59.13;;;;;;;6.36;100.00;103931.28;5112934;28;20019;-57
2021/12/17 09:03:23;;;;;;;180.20;56.22;;;;;;;6.38;100.00;103932.34;5113362;28;20383;-57
2021/12/17 09:05:49;;;;;;;182.13;57.00;;;;;;;6.41;100.00;103929.19;5113026;28;20039;-57
2021/12/17 09:08:14;;;;;;;189.90;58.38;;;;;;;6.42;100.00;103937.00;5112786;28;20019;-57
2021/12/17 09:10:43;;;;;;;189.30;58.95;;;;;;;6.44;100.00;103934.59;5113345;28;20028;-57
2021/12/17 09:13:08;;;;;;;187.32;59.28;;;;;;;6.43;100.00;103940.50;5112766;28;20027;-57
2021/12/17 09:15:34;;;;;;;210.98;59.55;;;;;;;6.43;100.00;103945.63;5113379;28;20030;-58
2021/12/17 09:17:59;;;;;;;206.45;61.13;;;;;;;6.43;100.00;103950.75;5113125;28;20032;-56
2021/12/17 09:20:25;;;;;;;215.98;61.67;;;;;;;6.42;100.00;103964.31;5112376;28;20055;-56
2021/12/17 09:22:52;;;;;;;216.85;58.80;;;;;;;6.41;100.00;103962.50;5113069;28;20031;-55
2021/12/17 09:25:17;;;;;;;213.88;58.85;;;;;;;6.43;100.00;103972.13;5113083;28;20053;-56
2021/12/17 09:27:43;;;;;;;211.45;58.22;;;;;;;6.44;100.00;103973.03;5112543;28;20379;-56
2021/12/17 09:30:12;;;;;;;219.63;59.17;;;;;;;6.45;100.00;103973.94;5113065;28;20030;-56
2021/12/17 09:32:39;;;;;;;216.10;58.90;;;;;;;6.47;100.00;103975.91;5113018;28;20073;-55
2021/12/17 09:35:05;;;;;;;211.23;59.13;;;;;;;6.47;100.00;103973.34;5112404;28;20059;-56
2021/12/17 09:37:31;;;;;;;225.57;56.63;;;;;;;6.50;100.00;103976.19;5113381;28;20062;-56
2021/12/17 09:39:56;;;;;;;194.15;56.45;;;;;;;6.52;100.00;103973.75;5112841;28;20102;-55
2021/12/17 09:42:21;;;;;;;177.10;54.08;;;;;;;6.55;100.00;103974.97;5112616;28;20181;-56
2021/12/17 09:44:47;;;;;;;208.35;53.65;;;;;;;6.56;100.00;103974.22;5112985;28;20038;-56
2021/12/17 09:47:13;;;;;;;197.85;54.63;;;;;;;6.58;100.00;103974.34;5112764;28;20374;-56
2021/12/17 09:49:38;;;;;;;193.07;54.17;;;;;;;6.62;100.00;103973.00;5112457;28;20027;-56
2021/12/17 09:52:04;;;;;;;197.75;54.67;;;;;;;6.67;100.00;103987.16;5112772;28;20023;-56
2021/12/17 09:54:30;;;;;;;176.73;50.20;;;;;;;6.68;100.00;103994.09;5112848;28;20390;-56
2021/12/17 09:56:55;;;;;;;160.07;48.08;;;;;;;6.68;100.00;103988.97;5112559;28;20026;-56
2021/12/17 09:59:21;;;;;;;159.02;46.80;;;;;;;6.70;100.00;103992.56;5112855;28;20502;-56
2021/12/17 10:01:46;;;;;;;167.23;46.67;;;;;;;6.72;100.00;103991.06;5112545;28;20080;-56
2021/12/17 10:04:16;;;;;;;174.35;46.63;;;;;;;6.72;100.00;103997.09;5112260;28;20020;-57
2021/12/17 10:06:42;;;;;;;149.18;45.00;;;;;;;6.73;100.00;103998.00;5113125;28;20020;-57
2021/12/17 10:09:07;;;;;;;160.45;45.92;;;;;;;6.75;100.00;104001.59;5112696;28;20360;-57
2021/12/17 10:11:33;;;;;;;145.98;42.70;;;;;;;6.75;100.00;104001.59;5112397;28;20034;-57
2021/12/17 10:14:19;;;;;;;159.13;42.85;;;;;;;6.79;100.00;103996.03;5112559;28;20019;-57
2021/12/17 10:16:45;;;;;;;134.60;39.97;;;;;;;6.77;100.00;104000.09;5111753;28;20114;-57
2021/12/17 10:19:11;;;;;;;148.95;42.55;;;;;;;6.79;100.00;104003.72;5112589;28;20131;-57
2021/12/17 10:21:44;;;;;;;130.73;39.58;;;;;;;6.81;100.00;104007.31;5113203;28;20111;-57
2021/12/17 10:24:20;;;;;;;135.57;40.13;;;;;;;6.84;100.00;103993.91;5116181;28;20016;-57
2021/12/17 10:26:46;;;;;;;125.00;36.00;;;;;;;6.84;100.00;103999.03;5116398;28;20498;-56
2021/12/17 10:29:20;;;;;;;105.13;32.17;;;;;;;6.87;100.00;104002.78;5116171;28;20059;-57
2021/12/17 10:31:56;;;;;;;104.13;33.38;;;;;;;6.89;100.00;104000.38;5115672;28;20467;-56
2021/12/17 10:34:24;;;;;;;95.40;28.58;;;;;;;6.89;100.00;104003.84;5116398;28;20049;-57
2021/12/17 10:36:49;;;;;;;97.93;28.80;;;;;;;6.93;100.00;104005.03;5116108;28;20099;-57
2021/12/17 10:39:26;;;;;;;91.10;28.10;;;;;;;6.94;100.00;103999.16;5115500;28;20115;-58
2021/12/17 10:41:51;;;;;;;102.90;29.63;;;;;;;6.97;100.00;103993.41;5116130;28;20027;-58
2021/12/17 10:44:20;;;;;;;99.55;28.70;;;;;;;6.99;100.00;103997.94;5116175;28;20027;-59
2021/12/17 10:47:09;;;;;;;96.88;30.17;;;;;;;7.02;100.00;103997.31;5115632;28;20084;-59
2021/12/17 10:49:34;;;;;;;100.50;27.88;;;;;;;7.02;100.00;104005.94;5116030;28;20028;-59
2021/12/17 10:52:08;;;;;;;85.20;27.90;;;;;;;7.04;100.00;104003.50;5115403;28;20375;-59
2021/12/17 10:54:33;;;;;;;78.75;24.77;;;;;;;7.06;100.00;104001.97;5116284;28;20106;-59
2021/12/17 10:56:59;;;;;;;74.43;24.20;;;;;;;7.08;100.00;104003.03;5115555;28;20095;-58
2021/12/17 10:59:31;;;;;;;75.38;23.95;;;;;;;7.08;100.00;104010.72;5115167;27;20379;-58
2021/12/17 11:02:01;;;;;;;66.30;23.58;;;;;;;7.10;100.00;104004.06;5115797;28;20035;-59
2021/12/17 11:04:30;;;;;;;64.70;23.13;;;;;;;7.09;100.00;104005.72;5115575;28;20080;-59
2021/12/17 11:07:07;;;;;;;69.20;23.42;;;;;;;7.12;100.00;104015.38;5114967;28;20562;-59
2021/12/17 11:09:47;;;;;;;63.55;23.52;;;;;;;7.10;100.00;104011.75;5115878;28;20068;-59
2021/12/17 11:12:28;;;;;;;56.70;21.73;;;;;;;7.12;100.00;104004.22;5115310;28;20475;-58
2021/12/17 11:14:59;;;;;;;62.97;21.23;;;;;;;7.13;100.00;104013.72;5115005;28;20168;-59
2021/12/17 11:17:25;;;;;;;53.10;20.50;;;;;;;7.15;100.00;104004.50;5115393;28;20024;-59
2021/12/17 11:19:53;;;;;;;50.22;20.38;;;;;;;7.18;100.00;104000.56;5114369;28;20052;-59
2021/12/17 11:22:18;;;;;;;;;;;;;;;7.31;100.00;104001.72;5115823;28;20416;-58
2021/12/17 11:24:43;;;;;;;52.17;20.53;;;;;;;7.24;100.00;103996.03;5115379;28;20377;-59
2021/12/17 11:27:09;;;;;;;49.33;20.10;;;;;;;7.27;100.00;103999.63;5114848;28;20027;-59
2021/12/17 11:29:34;;;;;;;47.70;20.48;;;;;;;7.27;100.00;103994.50;5115247;28;20080;-59
2021/12/17 11:32:01;;;;;;;51.55;20.88;;;;;;;7.30;100.00;103989.66;5115257;28;20466;-59
2021/12/17 11:34:30;;;;;;;45.80;19.25;;;;;;;7.34;100.00;103979.81;5113463;28;20035;-59
2021/12/17 11:36:57;;;;;;;41.80;18.33;;;;;;;7.39;100.00;103985.41;5115184;28;20145;-59
2021/12/17 11:39:25;;;;;;;39.80;17.40;;;;;;;7.39;100.00;103975.13;5114755;28;20526;-59
2021/12/17 11:42:16;;;;;;;37.15;17.52;;;;;;;7.39;100.00;103976.00;5114522;28;20349;-58
2021/12/17 11:44:51;;;;;;;38.13;16.50;;;;;;;7.41;100.00;103974.50;5115359;28;20040;-59
2021/12/17 11:47:17;;;;;;;33.88;16.80;;;;;;;7.43;100.00;103972.06;5114849;28;20084;-59
2021/12/17 11:49:49;;;;;;;36.75;16.85;;;;;;;7.45;100.00;103970.56;5114568;28;20035;-58
2021/12/17 11:52:35;;;;;;;37.03;17.38;;;;;;;7.45;100.00;103965.44;5114945;28;20109;-59
2021/12/17 11:55:33;;;;;;;40.25;17.02;;;;;;;7.46;100.00;103962.09;5113844;28;20367;-58
2021/12/17 11:58:01;;;;;;;41.63;17.88;;;;;;;7.39;100.00;103965.75;5114746;28;20028;-59
2021/12/17 12:00:45;;;;;;;39.00;17.58;;;;;;;7.42;100.00;103962.56;5114420;28;20016;-59
2021/12/17 12:03:22;;;;;;;43.47;17.77;;;;;;;7.35;100.00;103962.78;5113997;28;20176;-58
2021/12/17 12:05:53;;;;;;;37.50;16.60;;;;;;;7.32;100.00;103960.81;5114706;28;20034;-59
2021/12/17 12:08:27;;;;;;;40.97;17.40;;;;;;;7.32;100.00;103962.47;5114366;28;20020;-59
2021/12/17 12:11:11;;;;;;;35.67;16.30;;;;;;;7.36;100.00;103962.00;5113953;28;20088;-58
2021/12/17 12:13:45;;;;;;;30.58;13.98;;;;;;;7.30;100.00;103962.34;5114465;28;20395;-59
2021/12/17 12:16:25;;;;;;;36.22;15.93;;;;;;;7.30;100.00;103975.16;5113682;28;20723;-58
2021/12/17 12:19:07;;;;;;;29.67;14.40;;;;;;;7.32;100.00;103972.75;5114086;28;20042;-59
2021/12/17 12:21:35;;;;;;;32.53;15.48;;;;;;;7.29;100.00;103972.47;5113913;28;20479;-59
2021/12/17 12:24:15;;;;;;;27.13;13.60;;;;;;;7.30;100.00;103979.41;5113562;28;20450;-59
2021/12/17 12:26:44;;;;;;;25.25;12.77;;;;;;;7.26;100.00;103975.66;5114468;28;20045;-59
2021/12/17 12:29:15;;;;;;;25.75;12.85;;;;;;;7.25;100.00;103976.41;5113989;28;20027;-59
2021/12/17 12:31:50;;;;;;;27.98;13.43;;;;;;;7.24;100.00;103975.50;5113799;28;20111;-58
2021/12/17 12:34:28;;;;;;;24.00;12.57;;;;;;;7.21;100.00;103962.38;5114621;28;20035;-59
2021/12/17 12:37:08;;;;;;;24.63;12.15;;;;;;;7.21;100.00;103959.81;5113897;28;20027;-58
2021/12/17 12:39:49;;;;;;;22.63;12.25;;;;;;;7.22;100.00;103966.75;5114109;28;20034;-58
2021/12/17 12:42:19;;;;;;;25.52;13.55;;;;;;;7.19;100.00;103965.56;5113761;28;20076;-58
2021/12/17 12:44:44;;;;;;;20.42;11.00;;;;;;;7.16;100.00;103963.59;5112616;28;20061;-59
2021/12/17 12:47:26;;;;;;;18.97;9.93;;;;;;;7.15;100.00;103966.94;5113953;28;20036;-59
2021/12/17 12:49:59;;;;;;;18.20;10.00;;;;;;;7.08;100.00;103954.31;5113531;28;20281;-58
2021/12/17 12:52:27;;;;;;;16.80;9.60;;;;;;;7.06;100.00;103955.81;5113328;28;20114;-58
2021/12/17 12:54:55;;;;;;;18.17;9.65;;;;;;;7.03;100.00;103956.41;5113574;28;20032;-59
2021/12/17 12:57:31;;;;;;;16.88;9.45;;;;;;;7.02;100.00;103961.41;5113388;28;20032;-59
2021/12/17 12:59:59;;;;;;;17.60;8.93;;;;;;;6.98;100.00;103964.44;5111071;28;20080;-58
2021/12/17 13:02:26;;;;;;;15.82;9.18;;;;;;;6.95;100.00;103959.94;5113714;27;20047;-58
2021/12/17 13:04:59;;;;;;;16.35;8.60;;;;;;;6.96;100.00;103960.81;5112882;28;20483;-58
2021/12/17 13:07:36;;;;;;;13.98;8.98;;;;;;;6.92;100.00;103960.53;5112844;28;20053;-59
2021/12/17 13:10:14;;;;;;;15.30;8.73;;;;;;;6.92;100.00;103959.66;5113394;28;20023;-59
2021/12/17 13:12:40;;;;;;;14.63;8.57;;;;;;;6.88;100.00;103966.16;5113113;28;20281;-58
2021/12/17 13:15:17;;;;;;;14.32;8.55;;;;;;;6.86;100.00;103961.63;5113457;28;20035;-58
2021/12/17 13:20:27;;;;;;;13.68;8.20;;;;;;;6.88;100.00;103958.47;5112291;28;20035;-58
2021/12/17 13:20:54;;;;;;;12.45;7.80;;;;;;;6.85;100.00;103958.16;5112836;28;20063;-59
2021/12/17 13:23:22;;;;;;;11.50;7.55;;;;;;;6.79;100.00;103954.09;5113348;28;20055;-59
2021/12/17 13:26:04;;;;;;;12.38;7.28;;;;;;;6.78;100.00;103948.09;5113265;28;20075;-56
2021/12/17 13:28:49;;;;;;;10.43;7.07;;;;;;;6.77;100.00;103959.09;5112729;28;20027;-57
2021/12/17 13:31:32;;;;;;;11.88;7.90;;;;;;;6.71;100.00;103949.16;5113113;28;20028;-58
2021/12/17 13:33:57;;;;;;;11.82;7.82;;;;;;;6.67;100.00;103951.28;5112525;28;20019;-58
2021/12/17 13:36:22;;;;;;;12.63;7.78;;;;;;;6.65;100.00;103947.66;5113133;28;20084;-58
2021/12/17 13:38:56;;;;;;;12.88;7.95;;;;;;;6.65;100.00;103952.78;5112666;28;20024;-57
2021/12/17 13:41:21;;;;;;;12.10;7.93;;;;;;;6.62;100.00;103953.38;5112476;28;20379;-58
2021/12/17 13:43:47;;;;;;;11.50;7.72;;;;;;;6.62;100.00;103949.94;5113095;28;20035;-57
2021/12/17 13:46:12;;;;;;;12.55;8.15;;;;;;;6.62;100.00;103958.50;5112865;28;20111;-57
2021/12/17 13:48:37;;;;;;;13.65;7.95;;;;;;;6.62;100.00;103953.38;5112682;28;20497;-57
2021/12/17 13:51:03;;;;;;;11.98;8.35;;;;;;;6.63;100.00;103946.63;5112977;28;20068;-57
2021/12/17 13:53:28;;;;;;;10.80;7.78;;;;;;;6.64;100.00;103956.13;5112642;28;20067;-57
2021/12/17 13:55:53;;;;;;;12.93;8.45;;;;;;;6.62;100.00;103955.06;5113504;28;20035;-57
2021/12/17 13:58:23;;;;;;;11.77;8.55;;;;;;;6.63;100.00;103959.44;5117133;28;20072;-58